Time;durP1;ratioP1;P1;durP2;ratioP2;P2;SDS_P1;SDS_P2;PMS_P1;PMS_P2;Temp;Humidity;BMP_temperature;BMP_pressure;BME280_temperature;BME280_humidity;BME280_pressure;Samples;Min_cycle;Max_cycle;Signal;HPM_P1;HPM_P2
2021/07/30 00:02:22;;;;;;;2.70;1.38;;;15.60;99.90;;;;;;5044603;28;20064;-72
2021/07/30 00:04:48;;;;;;;5.05;1.42;;;15.60;99.90;;;;;;5061392;28;20043;-72
2021/07/30 00:07:14;;;;;;;9.30;1.98;;;15.50;99.90;;;;;;5046196;28;20104;-74
2021/07/30 00:09:39;;;;;;;5.95;1.70;;;15.50;99.90;;;;;;5046068;28;20053;-72
2021/07/30 00:12:06;;;;;;;3.30;1.67;;;15.50;99.90;;;;;;5045908;28;20038;-73
2021/07/30 00:14:32;;;;;;;4.32;1.25;;;15.50;99.90;;;;;;5045527;28;20049;-72
2021/07/30 00:16:57;;;;;;;1.45;0.90;;;15.40;99.90;;;;;;5061154;28;20026;-72
2021/07/30 00:19:23;;;;;;;5.85;1.05;;;15.40;99.90;;;;;;5045775;28;20025;-73
2021/07/30 00:21:49;;;;;;;5.55;1.58;;;15.40;99.90;;;;;;5045665;28;20490;-71
2021/07/30 00:24:15;;;;;;;13.13;1.75;;;15.40;99.90;;;;;;5045722;28;20089;-72
2021/07/30 00:26:40;;;;;;;0.88;0.85;;;15.40;99.90;;;;;;5061014;28;20029;-72
2021/07/30 00:29:06;;;;;;;2.38;1.20;;;15.30;99.90;;;;;;5045595;28;20028;-73
2021/07/30 00:31:31;;;;;;;4.18;2.03;;;15.30;99.90;;;;;;5045493;28;20061;-72
2021/07/30 00:33:57;;;;;;;2.53;1.27;;;15.30;99.90;;;;;;5044111;28;20025;-72
2021/07/30 00:36:23;;;;;;;13.02;1.55;;;15.40;99.90;;;;;;5045397;28;20108;-71
2021/07/30 00:38:48;;;;;;;5.05;1.70;;;15.40;99.90;;;;;;5045332;28;20034;-71
2021/07/30 00:41:14;;;;;;;4.90;1.75;;;15.10;99.90;;;;;;5045657;28;20032;-72
2021/07/30 00:43:39;;;;;;;1.77;1.00;;;15.20;99.90;;;;;;5045575;28;20050;-72
2021/07/30 00:46:06;;;;;;;5.45;1.73;;;15.20;99.90;;;;;;5045233;28;20017;-70
2021/07/30 00:48:31;;;;;;;3.35;1.60;;;15.20;99.90;;;;;;5045350;28;20032;-72
2021/07/30 00:50:58;;;;;;;6.82;1.88;;;15.10;99.90;;;;;;5045131;28;20029;-71
2021/07/30 00:53:25;;;;;;;5.18;1.83;;;15.10;99.90;;;;;;5045103;28;20029;-71
2021/07/30 00:55:53;;;;;;;7.90;2.03;;;15.00;99.90;;;;;;5045162;28;20021;-71
2021/07/30 00:58:20;;;;;;;5.55;1.88;;;15.10;99.90;;;;;;5043467;28;20034;-73
2021/07/30 01:00:46;;;;;;;3.92;1.50;;;15.10;99.90;;;;;;5045138;28;20044;-73
2021/07/30 01:03:11;;;;;;;7.10;1.65;;;15.10;99.90;;;;;;5043723;28;20102;-72
2021/07/30 01:05:37;;;;;;;7.15;2.28;;;15.00;99.90;;;;;;5043809;28;20029;-71
2021/07/30 01:08:03;;;;;;;3.35;1.52;;;15.00;99.90;;;;;;5044929;28;20116;-72
2021/07/30 01:10:30;;;;;;;7.15;2.13;;;15.00;99.90;;;;;;5044754;28;20030;-71
2021/07/30 01:12:56;;;;;;;3.47;1.42;;;15.00;99.90;;;;;;5044893;28;20030;-71
2021/07/30 01:15:22;;;;;;;2.10;1.55;;;15.00;99.90;;;;;;5044462;28;20045;-72
2021/07/30 01:17:48;;;;;;;8.90;2.47;;;15.00;99.90;;;;;;5043453;28;20499;-73
2021/07/30 01:20:14;;;;;;;3.47;1.42;;;14.90;99.90;;;;;;5043620;28;20041;-72
2021/07/30 01:23:00;;;;;;;3.83;1.45;;;14.90;99.90;;;;;;5044931;28;20089;-76
2021/07/30 01:25:28;;;;;;;3.65;1.75;;;14.90;99.90;;;;;;5042739;28;20104;-74
2021/07/30 01:27:55;;;;;;;11.20;2.25;;;14.90;99.90;;;;;;5044606;28;20037;-71
2021/07/30 01:30:22;;;;;;;10.80;1.83;;;14.90;99.90;;;;;;5044627;28;20022;-75
2021/07/30 01:32:49;;;;;;;6.97;2.60;;;14.80;99.90;;;;;;5044553;28;20022;-73
2021/07/30 01:35:15;;;;;;;7.90;1.88;;;14.80;99.90;;;;;;5044792;28;20025;-74
2021/07/30 01:37:41;;;;;;;5.38;2.05;;;14.90;99.90;;;;;;5044502;28;20478;-76
2021/07/30 01:40:09;;;;;;;3.92;1.80;;;14.80;99.90;;;;;;5044516;28;20453;-74
2021/07/30 01:42:35;;;;;;;9.50;2.90;;;14.80;99.90;;;;;;5043214;28;20026;-73
2021/07/30 01:45:01;;;;;;;7.30;1.83;;;14.70;99.90;;;;;;5047896;28;20033;-71
2021/07/30 01:47:27;;;;;;;5.47;1.80;;;14.70;99.90;;;;;;5049731;28;20053;-70
2021/07/30 01:49:53;;;;;;;6.68;1.60;;;14.70;99.90;;;;;;5064411;28;20092;-71
2021/07/30 01:52:19;;;;;;;7.25;2.35;;;14.70;99.90;;;;;;5055256;28;20495;-72
2021/07/30 01:54:46;;;;;;;5.20;1.92;;;14.70;99.90;;;;;;5043096;28;20022;-73
2021/07/30 01:57:11;;;;;;;3.08;1.45;;;14.70;99.90;;;;;;5044695;28;20021;-72
2021/07/30 01:59:40;;;;;;;3.70;1.85;;;14.60;99.90;;;;;;5044197;28;20494;-74
2021/07/30 02:02:06;;;;;;;6.35;1.80;;;14.60;99.90;;;;;;5042986;28;20045;-73
2021/07/30 02:04:32;;;;;;;6.45;2.25;;;14.60;99.90;;;;;;5042969;28;20049;-73
2021/07/30 02:06:58;;;;;;;5.68;2.10;;;14.60;99.90;;;;;;5044467;28;20040;-73
2021/07/30 02:09:23;;;;;;;2.92;1.70;;;14.50;99.90;;;;;;5044185;28;20096;-71
2021/07/30 02:11:53;;;;;;;8.27;1.88;;;14.50;99.90;;;;;;5044320;28;20071;-73
2021/07/30 02:14:20;;;;;;;7.05;2.05;;;14.50;99.90;;;;;;5042848;28;20056;-74
2021/07/30 02:16:51;;;;;;;4.22;1.83;;;14.40;99.90;;;;;;5043033;28;20027;-74
2021/07/30 02:19:18;;;;;;;5.60;1.95;;;14.40;99.90;;;;;;5044260;28;20563;-77
2021/07/30 02:21:48;;;;;;;7.82;2.15;;;14.40;99.90;;;;;;5043171;28;20032;-76
2021/07/30 02:24:14;;;;;;;3.85;1.90;;;14.40;99.90;;;;;;5042848;28;20486;-75
2021/07/30 02:26:39;;;;;;;4.07;2.10;;;14.40;99.90;;;;;;5044256;28;20040;-75
2021/07/30 02:29:05;;;;;;;5.40;2.55;;;14.30;99.90;;;;;;5044095;28;20033;-73
2021/07/30 02:31:31;;;;;;;5.10;2.30;;;14.30;99.90;;;;;;5044006;28;20033;-72
2021/07/30 02:33:57;;;;;;;6.80;2.47;;;14.30;99.90;;;;;;5044110;28;20032;-71
2021/07/30 02:36:23;;;;;;;4.88;2.00;;;14.30;99.90;;;;;;5044152;28;20706;-72
2021/07/30 02:38:49;;;;;;;3.65;2.05;;;14.30;99.90;;;;;;5047479;28;20036;-75
2021/07/30 02:41:18;;;;;;;6.13;2.25;;;14.30;99.90;;;;;;5046628;28;20187;-74
2021/07/30 02:43:45;;;;;;;6.07;2.25;;;14.30;99.90;;;;;;5047710;28;20052;-72
2021/07/30 02:46:12;;;;;;;3.80;2.08;;;14.20;99.90;;;;;;5047422;28;20033;-75
2021/07/30 02:48:37;;;;;;;7.40;2.97;;;14.20;99.90;;;;;;5047622;28;20021;-72
2021/07/30 02:51:03;;;;;;;2.95;1.98;;;14.20;99.90;;;;;;5047469;28;20083;-72
2021/07/30 02:53:29;;;;;;;4.72;2.53;;;14.10;99.90;;;;;;5046098;28;20390;-71
2021/07/30 02:55:55;;;;;;;5.13;1.98;;;14.20;99.90;;;;;;5047251;28;20033;-72
2021/07/30 02:58:20;;;;;;;3.75;2.50;;;14.10;99.90;;;;;;5047168;28;20032;-73
2021/07/30 03:00:46;;;;;;;3.70;1.98;;;14.20;99.90;;;;;;5047446;28;20057;-73
2021/07/30 03:03:12;;;;;;;6.57;2.38;;;14.10;99.90;;;;;;5047223;28;20089;-74
2021/07/30 03:05:37;;;;;;;4.55;2.60;;;14.10;99.90;;;;;;5046106;28;20022;-71
2021/07/30 03:08:03;;;;;;;6.43;2.20;;;14.10;99.90;;;;;;5047166;28;20036;-72
2021/07/30 03:10:29;;;;;;;7.88;2.50;;;14.10;99.90;;;;;;5047073;28;20069;-72
2021/07/30 03:12:54;;;;;;;5.57;1.90;;;14.10;99.90;;;;;;5046878;28;20025;-77
2021/07/30 03:15:20;;;;;;;12.70;2.75;;;14.10;99.90;;;;;;5046819;28;20080;-73
2021/07/30 03:17:45;;;;;;;8.85;2.40;;;14.10;99.90;;;;;;5046958;28;20382;-71
2021/07/30 03:20:12;;;;;;;10.63;2.53;;;14.00;99.90;;;;;;5047188;28;20060;-69
2021/07/30 03:22:37;;;;;;;6.53;2.35;;;14.00;99.90;;;;;;5046898;28;20026;-73
2021/07/30 03:25:03;;;;;;;6.45;3.30;;;14.00;99.90;;;;;;5046588;28;20095;-75
2021/07/30 03:27:29;;;;;;;6.68;2.67;;;14.00;99.90;;;;;;5045521;28;20033;-73
2021/07/30 03:29:55;;;;;;;5.43;3.10;;;14.00;99.90;;;;;;5046794;28;20021;-71
2021/07/30 03:32:20;;;;;;;4.30;2.15;;;14.00;99.90;;;;;;5045290;28;20026;-74
2021/07/30 03:34:46;;;;;;;7.03;2.47;;;14.00;99.90;;;;;;5046763;28;20036;-73
2021/07/30 03:37:12;;;;;;;6.97;2.65;;;14.00;99.90;;;;;;5046822;28;20033;-72
2021/07/30 03:39:38;;;;;;;7.28;2.80;;;13.90;99.90;;;;;;5046608;28;20056;-72
2021/07/30 03:42:05;;;;;;;12.65;2.83;;;13.90;99.90;;;;;;5046496;28;20025;-73
2021/07/30 03:44:31;;;;;;;8.13;2.78;;;13.90;99.90;;;;;;5046526;28;20077;-74
2021/07/30 03:46:56;;;;;;;4.75;2.60;;;13.90;99.90;;;;;;5044936;28;20048;-73
2021/07/30 03:49:22;;;;;;;7.30;2.72;;;13.90;99.90;;;;;;5046020;28;20029;-71
2021/07/30 03:51:47;;;;;;;8.77;2.88;;;13.90;99.90;;;;;;5046397;28;20385;-75
2021/07/30 03:54:13;;;;;;;8.65;2.90;;;13.90;99.90;;;;;;5045223;28;20021;-71
2021/07/30 03:56:40;;;;;;;4.03;2.20;;;13.80;99.90;;;;;;5046365;28;20022;-72
2021/07/30 03:59:06;;;;;;;4.43;2.58;;;13.90;99.90;;;;;;5046134;28;20049;-77
2021/07/30 04:01:31;;;;;;;4.35;2.80;;;13.90;99.90;;;;;;5044900;28;20033;-74
2021/07/30 04:03:57;;;;;;;16.60;2.72;;;13.80;99.90;;;;;;5046115;28;20066;-72
2021/07/30 04:06:22;;;;;;;8.55;3.40;;;13.90;99.90;;;;;;5046012;28;20025;-72
2021/07/30 04:08:48;;;;;;;12.68;3.50;;;13.90;99.90;;;;;;5045932;28;20029;-73
2021/07/30 04:11:13;;;;;;;13.43;2.58;;;13.90;99.90;;;;;;5046071;28;20435;-73
2021/07/30 04:13:39;;;;;;;8.82;3.17;;;13.90;99.90;;;;;;5045926;28;20063;-75
2021/07/30 04:16:06;;;;;;;8.85;3.05;;;13.90;99.90;;;;;;5044334;28;20046;-72
2021/07/30 04:18:31;;;;;;;6.55;3.50;;;13.90;99.90;;;;;;5053898;28;20033;-71
2021/07/30 04:20:57;;;;;;;6.85;3.33;;;13.90;99.90;;;;;;5070919;28;20512;-72
2021/07/30 04:23:23;;;;;;;5.32;2.78;;;13.80;99.90;;;;;;5045507;28;20351;-72
2021/07/30 04:25:50;;;;;;;6.05;3.03;;;13.90;99.90;;;;;;5045702;28;20053;-74
2021/07/30 04:28:15;;;;;;;14.25;3.33;;;13.90;99.90;;;;;;5044548;28;20022;-71
2021/07/30 04:30:41;;;;;;;6.05;2.85;;;13.90;99.90;;;;;;5045793;28;20037;-70
2021/07/30 04:33:09;;;;;;;10.32;3.20;;;13.90;99.90;;;;;;5045491;28;20029;-71
2021/07/30 04:35:35;;;;;;;12.57;3.72;;;13.90;99.90;;;;;;5046137;28;20037;-72
2021/07/30 04:38:01;;;;;;;9.45;2.95;;;13.90;99.90;;;;;;5048323;28;20026;-71
2021/07/30 04:40:27;;;;;;;4.80;3.05;;;13.90;99.90;;;;;;5059943;28;20122;-70
2021/07/30 04:42:58;;;;;;;6.78;3.38;;;14.00;99.90;;;;;;5065326;28;20031;-70
2021/07/30 04:45:25;;;;;;;18.48;3.53;;;13.90;99.90;;;;;;5064141;28;20405;-72
2021/07/30 04:47:51;;;;;;;6.15;3.05;;;14.00;99.90;;;;;;5050575;28;20036;-72
2021/07/30 04:50:17;;;;;;;15.88;3.47;;;14.00;99.90;;;;;;5062797;28;20108;-70
2021/07/30 04:52:43;;;;;;;8.82;3.35;;;14.00;99.90;;;;;;5048186;28;20021;-69
2021/07/30 04:55:09;;;;;;;9.38;3.92;;;14.00;99.90;;;;;;5043968;28;20036;-73
2021/07/30 04:57:34;;;;;;;5.88;3.05;;;14.10;99.90;;;;;;5049355;28;20032;-72
2021/07/30 05:00:00;;;;;;;6.28;3.22;;;14.20;99.90;;;;;;5054163;28;20033;-72
2021/07/30 05:02:26;;;;;;;4.45;2.42;;;14.10;99.90;;;;;;5051469;28;20025;-71
2021/07/30 05:04:55;;;;;;;9.63;3.70;;;14.20;99.90;;;;;;5044898;28;20041;-69
2021/07/30 05:07:24;;;;;;;11.27;3.58;;;14.30;99.90;;;;;;5044861;28;20616;-72
2021/07/30 05:09:50;;;;;;;7.80;3.40;;;14.30;99.90;;;;;;5044929;28;20076;-72
2021/07/30 05:12:16;;;;;;;9.18;3.47;;;14.30;99.90;;;;;;5049368;28;20025;-72
2021/07/30 05:14:41;;;;;;;5.50;3.05;;;14.30;99.90;;;;;;5064642;28;20048;-73
2021/07/30 05:17:07;;;;;;;7.43;2.97;;;14.40;99.90;;;;;;5063343;28;20037;-70
2021/07/30 05:19:32;;;;;;;5.15;2.65;;;14.50;99.90;;;;;;5064617;28;20029;-70
2021/07/30 05:21:58;;;;;;;6.13;3.17;;;14.50;99.90;;;;;;5064773;28;20033;-70
2021/07/30 05:24:23;;;;;;;11.38;4.13;;;14.50;99.90;;;;;;5064316;28;20063;-72
2021/07/30 05:26:49;;;;;;;9.00;3.58;;;14.60;99.90;;;;;;5059796;28;20060;-72
2021/07/30 05:29:15;;;;;;;7.47;3.60;;;14.70;99.90;;;;;;5051686;28;20041;-72
2021/07/30 05:31:41;;;;;;;9.52;3.58;;;14.70;99.90;;;;;;5054679;28;20033;-70
2021/07/30 05:34:06;;;;;;;5.60;2.63;;;14.70;99.90;;;;;;5061506;28;20039;-71
2021/07/30 05:36:32;;;;;;;7.10;3.25;;;14.70;99.90;;;;;;5061711;28;20584;-70
2021/07/30 05:38:58;;;;;;;6.57;2.97;;;14.80;99.90;;;;;;5046095;28;20069;-71
2021/07/30 05:41:23;;;;;;;8.10;3.50;;;14.80;99.90;;;;;;5043272;28;20022;-69
2021/07/30 05:43:50;;;;;;;7.07;3.03;;;14.90;99.90;;;;;;5043170;28;20082;-71
2021/07/30 05:46:19;;;;;;;4.90;2.63;;;14.90;99.90;;;;;;5044771;28;20029;-70
2021/07/30 05:48:46;;;;;;;10.57;3.72;;;14.90;99.90;;;;;;5044514;28;20029;-73
2021/07/30 05:51:13;;;;;;;9.10;3.22;;;15.00;99.90;;;;;;5046344;28;20029;-72
2021/07/30 05:53:39;;;;;;;12.57;2.67;;;15.00;99.90;;;;;;5052398;28;20144;-70
2021/07/30 05:56:05;;;;;;;9.48;3.55;;;15.00;99.90;;;;;;5055503;28;20051;-69
2021/07/30 05:58:33;;;;;;;8.23;3.78;;;15.10;99.90;;;;;;5063006;28;20013;-69
2021/07/30 06:00:59;;;;;;;6.15;3.50;;;15.10;99.90;;;;;;5044252;28;20033;-69
2021/07/30 06:03:25;;;;;;;9.63;3.15;;;15.20;99.90;;;;;;5043714;28;20044;-69
2021/07/30 06:05:51;;;;;;;20.10;4.18;;;15.20;99.90;;;;;;5045638;28;20053;-69
2021/07/30 06:08:16;;;;;;;6.45;3.47;;;15.30;99.90;;;;;;5055606;28;20047;-73
2021/07/30 06:10:42;;;;;;;7.28;3.42;;;15.40;99.90;;;;;;5056948;28;20049;-71
2021/07/30 06:13:08;;;;;;;8.50;2.85;;;15.40;99.90;;;;;;5047726;28;20508;-69
2021/07/30 06:15:34;;;;;;;10.80;3.63;;;15.50;99.90;;;;;;5047910;28;20065;-70
2021/07/30 06:18:03;;;;;;;8.63;3.22;;;15.60;99.90;;;;;;5048098;28;20029;-73
2021/07/30 06:20:30;;;;;;;15.30;3.83;;;15.60;99.90;;;;;;5048138;28;20134;-73
2021/07/30 06:22:57;;;;;;;7.97;3.05;;;15.60;99.90;;;;;;5046707;28;20120;-70
2021/07/30 06:25:23;;;;;;;8.90;3.72;;;15.70;99.90;;;;;;5047768;28;20037;-70
2021/07/30 06:27:48;;;;;;;7.95;3.53;;;15.70;99.90;;;;;;5048080;28;20053;-69
2021/07/30 06:30:14;;;;;;;12.55;3.83;;;15.70;99.90;;;;;;5048111;28;20025;-68
2021/07/30 06:32:40;;;;;;;9.63;3.30;;;15.70;99.90;;;;;;5047973;28;20065;-69
2021/07/30 06:35:07;;;;;;;16.88;3.75;;;15.80;99.90;;;;;;5047896;28;20026;-69
2021/07/30 06:37:33;;;;;;;7.38;3.63;;;15.80;99.90;;;;;;5048115;28;20028;-72
2021/07/30 06:39:59;;;;;;;8.40;3.45;;;15.90;99.90;;;;;;5047725;28;20036;-70
2021/07/30 06:42:25;;;;;;;10.23;3.15;;;15.90;99.90;;;;;;5047898;28;20100;-70
2021/07/30 06:44:51;;;;;;;9.95;3.10;;;16.10;99.90;;;;;;5046366;28;20037;-72
2021/07/30 06:47:18;;;;;;;6.15;2.67;;;16.10;99.90;;;;;;5047515;28;20389;-71
2021/07/30 06:49:44;;;;;;;10.07;3.70;;;16.10;99.90;;;;;;5050979;28;20026;-72
2021/07/30 06:52:10;;;;;;;8.07;3.10;;;16.20;99.90;;;;;;5050922;28;20189;-71
2021/07/30 06:54:37;;;;;;;5.85;2.88;;;16.40;99.90;;;;;;5065485;28;20095;-70
2021/07/30 06:57:03;;;;;;;8.18;4.03;;;16.40;99.90;;;;;;5051435;28;20026;-71
2021/07/30 06:59:29;;;;;;;13.63;3.15;;;16.40;99.90;;;;;;5067183;28;20032;-71
2021/07/30 07:01:55;;;;;;;10.43;3.55;;;16.50;99.90;;;;;;5062657;28;20025;-67
2021/07/30 07:04:21;;;;;;;6.63;3.28;;;16.60;99.90;;;;;;5047033;28;20124;-70
2021/07/30 07:06:47;;;;;;;5.22;2.83;;;16.70;99.90;;;;;;5047326;28;20382;-71
2021/07/30 07:09:14;;;;;;;7.88;2.78;;;16.70;99.90;;;;;;5047337;28;20018;-70
2021/07/30 07:11:39;;;;;;;9.90;3.85;;;16.90;99.90;;;;;;5047234;28;20053;-68
2021/07/30 07:14:05;;;;;;;7.18;2.78;;;17.00;99.90;;;;;;5047005;28;20032;-73
2021/07/30 07:16:31;;;;;;;15.57;3.13;;;17.00;99.90;;;;;;5046964;28;20033;-72
2021/07/30 07:18:56;;;;;;;6.70;3.40;;;17.00;99.90;;;;;;5047018;28;20037;-70
2021/07/30 07:21:22;;;;;;;4.38;2.50;;;17.10;99.90;;;;;;5047109;28;20045;-69
2021/07/30 07:23:51;;;;;;;9.48;3.30;;;17.20;99.90;;;;;;5046112;28;20042;-73
2021/07/30 07:26:19;;;;;;;13.43;2.55;;;17.30;99.90;;;;;;5047042;28;20040;-73
2021/07/30 07:28:45;;;;;;;8.10;3.53;;;17.40;99.90;;;;;;5046910;28;20021;-73
2021/07/30 07:31:12;;;;;;;6.13;2.67;;;17.40;99.90;;;;;;5046425;28;20029;-71
2021/07/30 07:33:38;;;;;;;5.25;2.60;;;17.50;99.90;;;;;;5045534;28;20130;-70
2021/07/30 07:36:05;;;;;;;10.80;2.80;;;17.50;99.90;;;;;;5046177;28;20490;-74
2021/07/30 07:38:31;;;;;;;9.07;3.05;;;17.60;99.90;;;;;;5044645;28;20068;-70
2021/07/30 07:40:56;;;;;;;6.85;2.33;;;17.70;99.90;;;;;;5046103;28;20038;-69
2021/07/30 07:43:22;;;;;;;8.35;2.70;;;17.70;99.90;;;;;;5046059;28;20033;-68
2021/07/30 07:45:48;;;;;;;10.00;2.85;;;17.80;99.90;;;;;;5046276;28;20419;-70
2021/07/30 07:48:13;;;;;;;7.93;3.00;;;17.90;99.90;;;;;;5046313;28;20048;-71
2021/07/30 07:50:39;;;;;;;9.57;3.08;;;17.90;99.90;;;;;;5044799;28;20040;-75
2021/07/30 07:53:15;;;;;;;6.25;2.97;;;17.90;99.90;;;;;;5046087;28;20478;-74
2021/07/30 07:55:41;;;;;;;5.13;2.47;;;18.00;99.90;;;;;;5046515;28;20029;-73
2021/07/30 07:58:07;;;;;;;10.02;3.08;;;18.10;99.90;;;;;;5046438;28;20029;-69
2021/07/30 08:00:33;;;;;;;7.38;2.28;;;18.10;99.90;;;;;;5046404;28;20033;-70
2021/07/30 08:02:59;;;;;;;9.02;2.40;;;18.10;99.90;;;;;;5061415;28;20052;-71
2021/07/30 08:05:24;;;;;;;8.02;2.38;;;18.20;99.90;;;;;;5045875;28;20045;-69
2021/07/30 08:07:50;;;;;;;11.43;2.42;;;18.30;99.90;;;;;;5046093;28;20429;-70
2021/07/30 08:10:15;;;;;;;5.63;2.83;;;18.30;99.90;;;;;;5046202;28;20036;-71
2021/07/30 08:12:41;;;;;;;5.22;2.38;;;18.50;99.90;;;;;;5046075;28;20096;-69
2021/07/30 08:15:07;;;;;;;6.70;2.88;;;18.50;99.90;;;;;;5045874;28;20076;-74
2021/07/30 08:17:37;;;;;;;11.75;2.47;;;18.60;99.90;;;;;;5062529;28;20037;-69
2021/07/30 08:20:07;;;;;;;6.28;2.50;;;18.70;99.90;;;;;;5065149;28;20025;-69
2021/07/30 08:22:33;;;;;;;4.38;1.98;;;18.70;99.90;;;;;;5065159;28;20509;-68
2021/07/30 08:24:59;;;;;;;16.30;2.63;;;18.80;99.90;;;;;;5065273;28;20087;-71
2021/07/30 08:27:25;;;;;;;8.10;2.88;;;18.90;99.90;;;;;;5063815;28;20116;-71
2021/07/30 08:29:50;;;;;;;7.65;2.53;;;18.90;99.90;;;;;;5065268;28;20393;-70
2021/07/30 08:32:17;;;;;;;5.57;2.40;;;19.10;99.90;;;;;;5065184;28;20049;-69
2021/07/30 08:34:43;;;;;;;5.38;2.38;;;19.10;99.90;;;;;;5064125;28;20017;-70
2021/07/30 08:37:10;;;;;;;5.03;2.10;;;19.20;99.90;;;;;;5065141;28;20029;-70
2021/07/30 08:39:36;;;;;;;3.05;2.03;;;19.30;99.90;;;;;;5064820;28;20130;-71
2021/07/30 08:42:04;;;;;;;5.53;1.90;;;19.30;99.90;;;;;;5064881;28;20063;-70
2021/07/30 08:44:29;;;;;;;3.00;1.48;;;19.40;99.90;;;;;;5064761;28;20048;-71
2021/07/30 08:46:56;;;;;;;2.58;1.73;;;19.50;99.90;;;;;;5064452;28;20029;-74
2021/07/30 08:49:22;;;;;;;7.68;1.88;;;19.50;99.90;;;;;;5064770;28;20025;-69
2021/07/30 08:51:52;;;;;;;3.17;1.80;;;19.60;99.90;;;;;;5064593;28;20031;-70
2021/07/30 08:54:17;;;;;;;8.40;1.95;;;19.60;99.90;;;;;;5064804;28;20028;-72
2021/07/30 08:56:43;;;;;;;4.35;1.90;;;19.70;99.90;;;;;;5064640;28;20037;-70
2021/07/30 08:59:09;;;;;;;4.47;1.63;;;19.80;99.90;;;;;;5058079;28;20088;-71
2021/07/30 09:01:36;;;;;;;2.67;1.80;;;20.00;99.90;;;;;;5063594;28;20040;-69
2021/07/30 09:04:02;;;;;;;5.70;1.90;;;20.00;99.90;;;;;;5060365;28;20041;-73
2021/07/30 09:06:27;;;;;;;2.53;1.55;;;20.10;99.90;;;;;;5060168;28;20032;-70
2021/07/30 09:09:02;;;;;;;2.60;1.50;;;20.20;99.90;;;;;;5043583;28;20140;-73
2021/07/30 09:11:33;;;;;;;3.78;2.33;;;20.20;99.90;;;;;;5045112;28;20029;-73
2021/07/30 09:14:01;;;;;;;5.40;1.95;;;20.30;99.90;;;;;;5044692;28;20029;-72
2021/07/30 09:16:28;;;;;;;4.82;1.65;;;20.30;99.90;;;;;;5044858;28;20059;-73
2021/07/30 09:18:53;;;;;;;6.65;1.83;;;20.40;99.90;;;;;;5044918;28;20039;-71
2021/07/30 09:21:21;;;;;;;3.08;1.45;;;20.40;99.90;;;;;;5045013;28;20406;-71
2021/07/30 09:23:49;;;;;;;7.57;2.38;;;20.50;99.90;;;;;;5044868;28;20041;-73
2021/07/30 09:26:50;;;;;;;11.40;1.58;;;20.60;99.90;;;;;;5045051;28;20026;-71
2021/07/30 09:29:16;;;;;;;4.38;1.30;;;20.70;99.90;;;;;;5044839;28;20037;-71
2021/07/30 09:31:55;;;;;;;3.60;1.30;;;20.80;99.90;;;;;;5044813;28;20049;-73
2021/07/30 09:34:38;;;;;;;2.08;1.10;;;20.90;99.90;;;;;;5044387;28;20167;-71
2021/07/30 09:37:06;;;;;;;2.13;1.02;;;20.90;99.90;;;;;;5044553;28;20100;-70
2021/07/30 09:39:40;;;;;;;5.55;1.40;;;21.10;99.90;;;;;;5044553;28;20025;-73
2021/07/30 09:42:11;;;;;;;1.88;1.17;;;21.10;99.90;;;;;;5044916;28;20040;-71
2021/07/30 09:44:53;;;;;;;4.32;1.45;;;21.10;99.90;;;;;;5044673;28;20057;-71
2021/07/30 09:47:21;;;;;;;4.03;1.30;;;21.10;99.90;;;;;;5046850;28;20089;-71
2021/07/30 09:50:01;;;;;;;3.97;1.42;;;21.20;99.90;;;;;;5064247;28;20110;-70
2021/07/30 09:52:32;;;;;;;2.03;1.02;;;21.30;99.90;;;;;;5048622;28;20036;-69
2021/07/30 09:54:59;;;;;;;1.70;1.17;;;21.40;99.90;;;;;;5048510;28;20029;-71
2021/07/30 09:57:26;;;;;;;3.80;1.65;;;21.40;99.90;;;;;;5048531;28;20474;-71
2021/07/30 09:59:58;;;;;;;4.60;1.52;;;21.40;99.90;;;;;;5048418;28;20022;-73
2021/07/30 10:02:29;;;;;;;5.78;1.60;;;21.50;99.90;;;;;;5048337;28;20030;-70
2021/07/30 10:04:55;;;;;;;3.67;1.52;;;21.40;99.90;;;;;;5048309;28;20414;-72
2021/07/30 10:07:28;;;;;;;4.43;1.58;;;21.50;99.90;;;;;;5048565;28;20021;-73
2021/07/30 10:10:14;;;;;;;3.50;1.23;;;21.50;99.90;;;;;;5063557;28;20032;-72
2021/07/30 10:12:47;;;;;;;3.60;1.60;;;21.50;99.90;;;;;;5063777;28;20463;-72
2021/07/30 10:15:13;;;;;;;4.70;1.60;;;21.60;99.90;;;;;;5048482;28;20105;-71
2021/07/30 10:17:50;;;;;;;3.42;1.35;;;21.60;99.90;;;;;;5048227;28;20034;-72
2021/07/30 10:20:18;;;;;;;5.03;1.52;;;21.60;99.90;;;;;;5048430;28;20028;-71
2021/07/30 10:22:49;;;;;;;4.30;1.48;;;21.60;99.90;;;;;;5048277;28;20072;-72
2021/07/30 10:25:41;;;;;;;7.82;1.98;;;21.70;99.90;;;;;;5048264;28;20121;-70
2021/07/30 10:28:18;;;;;;;4.03;1.38;;;21.80;99.90;;;;;;5046922;28;20252;-72
2021/07/30 10:30:54;;;;;;;7.68;1.63;;;21.90;99.90;;;;;;5048117;28;20025;-69
2021/07/30 10:33:36;;;;;;;3.13;1.42;;;22.00;99.90;;;;;;5047824;28;20025;-69
2021/07/30 10:36:06;;;;;;;4.78;1.92;;;22.10;99.90;;;;;;5048050;28;20059;-71
2021/07/30 10:38:33;;;;;;;4.90;1.55;;;22.30;99.90;;;;;;5047837;28;20036;-70
2021/07/30 10:40:58;;;;;;;4.97;1.42;;;22.40;99.90;;;;;;5048007;28;20059;-69
2021/07/30 10:43:27;;;;;;;2.10;1.20;;;22.60;99.90;;;;;;5047457;28;20072;-70
2021/07/30 10:46:05;;;;;;;3.45;1.45;;;22.80;99.90;;;;;;5047550;28;20111;-71
2021/07/30 10:48:38;;;;;;;3.60;1.25;;;22.70;99.90;;;;;;5047527;28;20022;-72
2021/07/30 10:51:28;;;;;;;5.57;1.43;;;22.80;99.90;;;;;;5047585;28;20029;-71
2021/07/30 10:54:04;;;;;;;3.88;1.65;;;22.90;99.90;;;;;;5048073;28;20028;-69
2021/07/30 10:56:32;;;;;;;8.57;1.23;;;23.00;99.90;;;;;;5047719;28;20029;-74
2021/07/30 10:58:58;;;;;;;3.35;1.33;;;23.10;99.90;;;;;;5046399;28;20029;-68
2021/07/30 11:01:43;;;;;;;2.35;1.25;;;23.20;99.90;;;;;;5047246;28;20062;-68
2021/07/30 11:04:10;;;;;;;1.88;1.25;;;23.30;99.90;;;;;;5047322;28;20048;-68
2021/07/30 11:06:44;;;;;;;4.38;1.42;;;23.40;99.90;;;;;;5047138;28;20030;-66
2021/07/30 11:09:12;;;;;;;2.17;1.40;;;23.60;99.90;;;;;;5047187;28;20044;-70
2021/07/30 11:11:57;;;;;;;2.35;1.25;;;23.60;99.90;;;;;;5047440;28;20025;-70
2021/07/30 11:14:29;;;;;;;2.63;1.52;;;23.60;99.90;;;;;;5062013;28;20156;-68
2021/07/30 11:17:00;;;;;;;4.93;1.40;;;23.60;99.90;;;;;;5047126;28;20030;-69
2021/07/30 11:19:30;;;;;;;7.72;1.55;;;23.70;99.90;;;;;;5047124;28;20040;-68
2021/07/30 11:21:57;;;;;;;2.47;1.42;;;23.80;99.90;;;;;;5047094;28;20036;-71
2021/07/30 11:24:23;;;;;;;2.95;1.52;;;24.00;99.90;;;;;;5046834;28;20496;-72
2021/07/30 11:26:50;;;;;;;2.90;1.63;;;24.10;99.90;;;;;;5047050;28;20153;-68
2021/07/30 11:29:20;;;;;;;3.83;1.67;;;24.10;99.90;;;;;;5047209;28;20371;-71
2021/07/30 11:31:58;;;;;;;4.93;1.38;;;24.10;99.90;;;;;;5047143;28;20041;-72
2021/07/30 11:34:29;;;;;;;1.25;0.80;;;24.20;99.90;;;;;;5062089;28;20029;-72
2021/07/30 11:36:56;;;;;;;12.93;1.45;;;24.30;99.90;;;;;;5046808;28;20032;-71
2021/07/30 11:39:30;;;;;;;3.50;1.50;;;24.40;99.90;;;;;;5046524;28;20029;-70
2021/07/30 11:41:56;;;;;;;3.35;1.75;;;24.50;99.90;;;;;;5046729;28;20056;-68
2021/07/30 11:44:22;;;;;;;1.98;0.70;;;24.70;99.90;;;;;;5046471;28;20030;-70
2021/07/30 11:46:52;;;;;;;3.00;1.60;;;24.80;99.90;;;;;;5046615;28;20040;-69
2021/07/30 11:49:26;;;;;;;7.82;1.77;;;25.00;99.90;;;;;;5046550;28;20152;-71
2021/07/30 11:51:52;;;;;;;2.92;1.65;;;25.10;99.90;;;;;;5046628;28;20032;-70
2021/07/30 11:54:25;;;;;;;5.63;1.00;;;25.00;99.90;;;;;;5046725;28;20057;-72
2021/07/30 11:56:51;;;;;;;3.00;1.57;;;25.20;99.90;;;;;;5046567;28;20052;-70
2021/07/30 11:59:17;;;;;;;3.55;1.88;;;25.20;99.90;;;;;;5045164;28;20072;-72
2021/07/30 12:02:02;;;;;;;4.38;1.50;;;25.20;99.90;;;;;;5046463;28;20021;-70
2021/07/30 12:04:27;;;;;;;5.80;1.15;;;25.20;99.90;;;;;;5046138;28;20037;-68
2021/07/30 12:06:57;;;;;;;5.00;1.40;;;25.00;99.90;;;;;;5046112;28;20033;-70
2021/07/30 12:09:24;;;;;;;1.38;0.88;;;25.00;99.90;;;;;;5045792;28;20057;-68
2021/07/30 12:11:53;;;;;;;3.00;1.45;;;25.10;99.90;;;;;;5046018;28;20026;-69
2021/07/30 12:14:20;;;;;;;2.28;1.30;;;25.40;99.90;;;;;;5046054;28;20053;-74
2021/07/30 12:16:46;;;;;;;5.18;1.70;;;25.30;99.90;;;;;;5046375;28;20036;-70
2021/07/30 12:19:12;;;;;;;1.83;1.20;;;25.20;99.90;;;;;;5046138;28;20037;-70
2021/07/30 12:21:57;;;;;;;2.55;1.23;;;25.40;99.90;;;;;;5045981;28;20045;-69
2021/07/30 12:24:23;;;;;;;3.50;1.30;;;25.80;99.90;;;;;;5045780;28;20037;-70
2021/07/30 12:26:49;;;;;;;5.65;1.20;;;26.00;99.90;;;;;;5045746;28;20022;-68
2021/07/30 12:29:41;;;;;;;2.55;1.27;;;26.10;99.90;;;;;;5045815;28;20021;-69
2021/07/30 12:32:23;;;;;;;4.43;1.20;;;26.20;99.90;;;;;;5061117;28;20032;-70
2021/07/30 12:35:16;;;;;;;2.60;1.20;;;26.20;99.90;;;;;;5045886;28;20466;-72
2021/07/30 12:38:02;;;;;;;2.55;1.40;;;26.20;99.90;;;;;;5045737;28;20492;-70
2021/07/30 12:40:28;;;;;;;3.00;1.35;;;25.90;99.90;;;;;;5045505;28;20025;-72
2021/07/30 12:43:15;;;;;;;1.20;0.80;;;26.00;99.90;;;;;;5045525;28;20029;-69
2021/07/30 12:45:48;;;;;;;3.90;1.55;;;26.40;99.90;;;;;;5045700;28;20033;-70
2021/07/30 12:48:22;;;;;;;2.58;1.58;;;26.70;99.90;;;;;;5061168;28;20486;-72
2021/07/30 12:50:49;;;;;;;1.77;0.98;;;26.80;99.90;;;;;;5045433;28;20030;-71